Weather reports worldwide

Advertisment
Pajares/Valgrande, Spain (8031): temperature & dewpoint: 20.09.2020 13:00:00 - 26.09.2020 13:00:00 (CEST)Pajares/Valgrande, Spain (8031): wind speed & gusts: 20.09.2020 13:00:00 - 26.09.2020 13:00:00 (CEST)Pajares/Valgrande, Spain (8031): wind direction: 20.09.2020 13:00:00 - 26.09.2020 13:00:00 (CEST)Pajares/Valgrande, Spain (8031): precipitation: 20.09.2020 13:00:00 - 26.09.2020 13:00:00 (CEST)
Date & Time tt [°C] td [°C] ff [km/h] ff [kn] fx [km/h] fx [kn] dd rr [mm]
26.09.2020 13:00:00 - - - - - - - -
26.09.2020 12:00:00 5,4 4,1 7 4 16 9 NNW 0,0
26.09.2020 11:00:00 - - - - - - - -
26.09.2020 10:00:00 - - - - - - - -
26.09.2020 09:00:00 4,1 2,7 10 5 22 12 NW 0,1
26.09.2020 08:00:00 3,7 2,3 8 4 17 9 NW -
26.09.2020 07:00:00 3,6 2,3 6 3 15 8 NNW 0,5
26.09.2020 06:00:00 3,2 1,9 7 4 19 10 NNW 0,4
26.09.2020 05:00:00 2,9 1,5 9 5 18 10 NNW 0,1
26.09.2020 04:00:00 2,5 1,3 8 4 26 14 NW 0,3
26.09.2020 03:00:00 2,4 1,1 16 8 30 16 NW 0,0
26.09.2020 02:00:00 2,3 1,1 17 9 36 19 NW -
26.09.2020 01:00:00 2,3 1,1 17 9 36 19 NW 0,0
26.09.2020 00:00:00 2,3 1,1 18 10 49 26 NNW 0,0
25.09.2020 23:00:00 - - - - - - - -
25.09.2020 22:00:00 - - - - - - - -
25.09.2020 21:00:00 2,9 1,5 21 11 44 24 NW 0,3
25.09.2020 20:00:00 3,0 1,7 23 12 48 26 NW -
25.09.2020 19:00:00 - - - - - - - -
25.09.2020 18:00:00 - - - - - - - -
25.09.2020 17:00:00 - - - - - - - -
25.09.2020 16:00:00 - - - - - - - -
25.09.2020 15:00:00 - - - - - - - -
25.09.2020 14:00:00 3,1 1,7 21 12 48 26 NW -
25.09.2020 13:00:00 - - - - - - - -
25.09.2020 12:00:00 - - - - - - - -
25.09.2020 11:00:00 2,2 0,9 23 13 51 28 NW 0,1
25.09.2020 10:00:00 2,0 0,6 19 10 43 23 NNW 0,1
25.09.2020 09:00:00 - - - - - - - -
25.09.2020 08:00:00 1,3 -0,3 24 13 51 27 NW -
25.09.2020 07:00:00 1,5 0,2 17 9 43 23 NNW 0,2
25.09.2020 06:00:00 - - - - - - - -
25.09.2020 05:00:00 1,9 -0,5 15 8 31 17 NNW 0,0
25.09.2020 04:00:00 - - - - - - - -
25.09.2020 03:00:00 - - - - - - - -
25.09.2020 02:00:00 2,1 0,9 15 8 38 21 NW -
25.09.2020 01:00:00 3,7 2,3 11 6 22 12 NW 0,4
25.09.2020 00:00:00 4,4 2,7 5 3 22 12 WNW 0,9
24.09.2020 23:00:00 - - - - - - - -
24.09.2020 22:00:00 - - - - - - - -
24.09.2020 21:00:00 - - - - - - - -
24.09.2020 20:00:00 7,5 1,3 4 2 29 16 WNW -
24.09.2020 19:00:00 - - - - - - - -
24.09.2020 18:00:00 9,0 1,5 6 3 35 19 WNW 0,0
24.09.2020 17:00:00 9,6 1,9 4 2 40 22 W 0,0
24.09.2020 16:00:00 - - - - - - - -
24.09.2020 15:00:00 10,6 -1,2 3 2 35 19 WSW 0,0
24.09.2020 14:00:00 11,4 -1,0 11 6 32 17 SW -
24.09.2020 13:00:00 11,0 -0,7 7 4 29 15 WNW 0,0
24.09.2020 12:00:00 10,1 0,6 11 6 20 11 S 0,0
24.09.2020 11:00:00 9,5 1,1 6 4 18 10 S 0,0
24.09.2020 10:00:00 8,1 1,1 9 5 27 14 SSW 0,0
24.09.2020 09:00:00 7,5 1,1 8 5 34 18 SW 0,0
24.09.2020 08:00:00 7,5 1,3 4 2 22 12 WSW -
24.09.2020 07:00:00 7,2 1,5 11 6 24 13 SW 0,0
24.09.2020 06:00:00 - - - - - - - -
24.09.2020 05:00:00 7,8 3,0 3 2 14 7 WNW 0,0
24.09.2020 04:00:00 - - - - - - - -
24.09.2020 03:00:00 8,3 3,4 11 6 18 10 SSW 0,0
24.09.2020 02:00:00 7,3 4,6 1 1 8 4 NNE -
24.09.2020 01:00:00 8,5 5,9 4 2 8 4 NE 0,0
24.09.2020 00:00:00 - - - - - - - -
23.09.2020 23:00:00 - - - - - - - -
23.09.2020 22:00:00 - - - - - - - -
23.09.2020 21:00:00 10,9 7,7 1 0 7 4 W 0,0
23.09.2020 20:00:00 11,8 7,8 2 1 10 5 W -
23.09.2020 19:00:00 12,6 7,0 2 1 10 5 SSW 0,0
23.09.2020 18:00:00 13,4 7,6 5 3 27 14 NW 0,0
23.09.2020 17:00:00 14,0 3,8 7 4 24 13 SSW 0,0
23.09.2020 16:00:00 14,2 4,5 6 4 23 12 NNE 0,0
23.09.2020 15:00:00 14,9 4,8 6 4 25 13 WSW 0,0
23.09.2020 14:00:00 13,9 7,0 11 6 29 16 S -
23.09.2020 13:00:00 13,6 6,4 11 6 24 13 S 0,0
23.09.2020 12:00:00 11,8 6,7 11 6 26 14 S 0,0
23.09.2020 11:00:00 11,8 6,2 1 0 17 9 NNE 0,0
23.09.2020 10:00:00 - - - - - - - -
23.09.2020 09:00:00 10,5 6,7 11 6 29 16 S 0,0
23.09.2020 08:00:00 10,2 6,4 7 4 36 20 SSW -
23.09.2020 07:00:00 10,2 6,5 22 12 38 20 S 0,1
23.09.2020 06:00:00 10,5 7,1 13 7 29 15 S 0,0
23.09.2020 05:00:00 - - - - - - - -
23.09.2020 04:00:00 10,1 7,1 20 11 36 19 SSE 0,0
23.09.2020 03:00:00 - - - - - - - -
23.09.2020 02:00:00 10,0 5,6 15 8 23 13 SSW -
23.09.2020 01:00:00 - - - - - - - -
23.09.2020 00:00:00 10,5 3,9 11 6 19 10 S 0,0
22.09.2020 23:00:00 9,7 4,3 10 5 15 8 SW 0,0
22.09.2020 22:00:00 9,5 3,0 8 5 18 10 SW 0,0
22.09.2020 21:00:00 11,2 3,0 12 7 21 12 SSW 0,0
22.09.2020 20:00:00 11,8 2,9 11 6 19 11 SSW -
22.09.2020 19:00:00 - - - - - - - -
22.09.2020 18:00:00 11,6 8,4 3 2 16 9 N 0,0
22.09.2020 17:00:00 - - - - - - - -
22.09.2020 16:00:00 13,4 4,3 8 4 19 11 S 0,0
22.09.2020 15:00:00 12,9 4,6 6 3 19 10 SSE 0,0
22.09.2020 14:00:00 12,8 3,9 14 7 26 14 S -
22.09.2020 13:00:00 13,5 4,8 11 6 21 11 SSE 0,0
22.09.2020 12:00:00 12,8 6,1 6 4 18 10 S 0,0
22.09.2020 11:00:00 10,9 6,1 10 5 18 10 S 0,0
22.09.2020 10:00:00 - - - - - - - -
22.09.2020 09:00:00 9,6 6,5 11 6 15 8 SSE 0,0
22.09.2020 08:00:00 9,3 6,2 9 5 23 12 SSE -
22.09.2020 07:00:00 9,4 6,5 12 6 26 14 S 0,0
22.09.2020 06:00:00 9,5 7,0 14 8 23 12 S 0,1
22.09.2020 05:00:00 - - - - - - - -
22.09.2020 04:00:00 - - - - - - - -
22.09.2020 03:00:00 9,5 7,1 11 6 22 12 S 0,0
22.09.2020 02:00:00 9,3 7,7 10 5 18 10 S -
22.09.2020 01:00:00 9,5 8,0 0 0 3 2 ESE 0,0
22.09.2020 00:00:00 9,6 8,0 0 0 4 2 ESE 0,0
21.09.2020 23:00:00 9,6 8,0 1 0 4 2 WNW 0,0
21.09.2020 22:00:00 9,7 8,1 0 0 5 3 NNE 0,1
21.09.2020 21:00:00 9,7 8,1 2 1 9 5 NW 0,0
21.09.2020 20:00:00 9,8 8,3 3 2 11 6 WNW -
21.09.2020 19:00:00 10,0 8,4 3 2 11 6 NW 0,0
21.09.2020 18:00:00 10,3 8,8 6 3 11 6 NW 0,0
21.09.2020 17:00:00 10,4 8,8 3 2 9 5 NNW 0,2
21.09.2020 16:00:00 9,9 8,4 3 2 8 4 WNW 0,4
21.09.2020 15:00:00 9,8 8,3 3 2 12 6 NNW 3,4
21.09.2020 14:00:00 10,0 8,4 7 4 11 6 NNW -
21.09.2020 13:00:00 - - - - - - - -
21.09.2020 12:00:00 10,1 8,4 2 1 7 4 WNW 0,9
21.09.2020 11:00:00 - - - - - - - -
21.09.2020 10:00:00 10,2 8,1 3 1 5 3 NW 0,0
21.09.2020 09:00:00 9,8 7,7 0 0 2 1 N 0,0
21.09.2020 08:00:00 9,4 7,1 0 0 2 1 N -
21.09.2020 07:00:00 9,4 7,1 1 0 5 3 W 0,0
21.09.2020 06:00:00 9,6 6,8 1 1 13 7 NNW 0,0
21.09.2020 05:00:00 10,0 7,6 8 4 12 6 SSW 0,0
21.09.2020 04:00:00 9,6 7,8 3 1 4 2 SSW 0,0
21.09.2020 03:00:00 9,8 8,1 2 1 5 3 SW 0,0
21.09.2020 02:00:00 9,8 8,1 1 0 5 3 SW -
21.09.2020 01:00:00 9,6 7,6 3 1 7 4 W 0,0
21.09.2020 00:00:00 - - - - - - - -
20.09.2020 23:00:00 - - - - - - - -
20.09.2020 22:00:00 10,2 8,7 4 2 14 7 NW 0,0
20.09.2020 21:00:00 10,6 9,0 2 1 9 5 NW 0,0
20.09.2020 20:00:00 10,8 9,0 4 2 9 5 WNW -
20.09.2020 19:00:00 11,3 9,4 5 3 11 6 W 0,7
20.09.2020 18:00:00 11,3 9,2 7 4 12 7 NNW 0,6
20.09.2020 17:00:00 - - - - - - - -
20.09.2020 16:00:00 - - - - - - - -
20.09.2020 15:00:00 11,8 8,5 4 2 8 4 WNW 0,0
20.09.2020 14:00:00 11,0 7,6 4 2 8 5 NW -
20.09.2020 13:00:00 11,6 7,7 4 2 10 5 NW 0,0

tt = temperature
td = dewpoint
ff = wind speed
fx = gusts
dd = wind direction
rr = precipitation

Next stations